Flight Track Log - Related Links

Times and Time Zones

All times are in EDT time to prevent confusion due to time zone crossing. See the ASH3770 flight status page for this flight to view local times or setup timezone preferences in your user account.

Time Position Orientation Groundspeed Altitude Reporting Facility
EDT Latitude Longitude Course Direction KTS MPH feet Rate Location/Type
Wed 03:39:32 PM 38.9667 -77.5167 106° East 209 241 2,600  Level Potomac TRACON
Wed 03:40:32 PM 39.0167 -77.5833 314° West 237 273 4,900 1,800 Climbing Potomac TRACON
Wed 03:41:32 PM 39.0833 -77.6333 330° Northwest 250 288 6,200 1,900 Climbing Potomac TRACON
Wed 03:42:00 PM 38.6833 -77.2935 124° Southeast  Level Estimated
Wed 03:42:32 PM 39.1500 -77.6167 11° North 299 344 8,700  Level Potomac TRACON
Wed 03:43:00 PM 38.6626 -77.2031 106° East  Level FlightAware Approximate
Wed 03:43:32 PM 39.1667 -77.5000 80° East 328 377 10,000  Level Potomac TRACON
Wed 03:44:00 PM 38.6419 -77.1127 106° East  Level FlightAware Approximate
Wed 03:44:32 PM 39.1667 -77.3833 90° East 349 402 10,300  Level Potomac TRACON
Wed 03:45:32 PM 39.1500 -77.2500 99° East 361 415 12,700 1,350 Climbing Potomac TRACON
Wed 03:46:32 PM 39.0833 -77.1500 131° Southeast 374 430 13,000 150 Climbing Potomac TRACON
Wed 03:47:32 PM 39.0167 -77.0500 131° Southeast 362 417 13,000  Level Potomac TRACON
Wed 03:48:32 PM 38.9500 -76.9500 131° Southeast 388 447 13,000  Level Potomac TRACON
Wed 03:49:26 PM 38.8833 -76.8500 131° Southeast 394 453 13,000 526 Level Potomac TRACON
Wed 03:50:26 PM 38.8333 -76.7667 128° Southeast 351 404 14,000 496 Climbing Potomac TRACON
Wed 03:51:27 PM 38.7333 -76.7000 153° Southeast 357 411 14,000  Level Potomac TRACON
Wed 03:52:31 PM 38.6375 -76.6814 171° South 365 420 14,000  Level Washington Center
Wed 03:53:31 PM 38.5439 -76.6614 171° South 371 427 14,000  Level Washington Center
Wed 03:54:33 PM 38.4542 -76.6442 171° South 348 400 14,000  Level Washington Center
Wed 03:55:31 PM 38.3692 -76.6114 163° South 334 384 14,000  Level Washington Center
Wed 03:56:31 PM 38.2817 -76.5969 173° South 323 372 14,000  Level Washington Center
Wed 03:57:32 PM 38.1981 -76.6036 184° South 329 379 14,000  Level Washington Center
Wed 03:58:33 PM 38.1061 -76.6261 191° South 334 384 14,000 -353 Level Washington Center
Wed 03:59:31 PM 38.0164 -76.6539 194° South 334 384 13,300 -864 Descending Washington Center
Wed 04:00:31 PM 37.9283 -76.6792 193° South 334 384 12,300 -992 Descending Washington Center
Wed 04:01:32 PM 37.8469 -76.6989 191° South 322 371 11,300 -978 Descending Washington Center
Wed 04:02:03 PM 37.8008 -76.7192 199° South 296 341 10,800 -1,180 Descending Washington Center
Wed 04:02:33 PM 37.7508 -76.7239 184° South 316 364 10,100 -627 Descending Washington Center
Wed 04:03:10 PM 37.7006 -76.7414 195° South 321 369 10,100  Level Washington Center
Wed 04:04:04 PM 37.6278 -76.7297 173° South 294 338 10,100 -55 Level Washington Center
Wed 04:04:59 PM 37.5550 -76.6972 161° South 303 349 10,000 -119 Descending Washington Center
Wed 04:05:45 PM 37.5197 -76.6811 160° South 297 342 9,900 76 Descending Washington Center
Wed 04:06:18 PM 37.4722 -76.6281 138° Southeast 293 337 10,100 128 Climbing Washington Center
Wed 04:07:19 PM 37.4417 -76.5336 112° Southeast 288 331 10,100  Level Washington Center
Wed 04:08:01 PM 37.4256 -76.4628 106° East 304 350 10,100 -286 Level Washington Center
Wed 04:08:43 PM 37.4156 -76.3867 99° East 283 326 9,700 -874 Descending Washington Center
Wed 04:09:44 PM 37.3703 -76.3028 124° Southeast 290 334 8,600 -1,525 Descending Washington Center
Wed 04:10:45 PM 37.3100 -76.2419 141° Southeast 276 318 6,600 -2,017 Descending Washington Center
Wed 04:11:43 PM 37.2500 -76.1789 140° Southeast 276 318 4,600 -1,068 Descending Washington Center
Wed 04:13:11 PM 37.1667 -76.0950 141° Southeast 257 296 4,000 -172 Descending Washington Center
Wed 04:15:12 PM 37.0711 -76.0058 143° Southeast 193 222 4,000  Level Washington Center

Login

Don't have an account? Register now (free) for customized features, flight alerts, and more!